| time (UTC) | temp C | wind direction | speed KPH | gust KPH | rain 1hr cm | rain 24hr cm | rain mn cm | humidity % | barometer mb |
| 20260506190353 | 16 | 222 | 0.0 | 0.0 | 0.00 | 0.00 | 0.00 | 67 | 1008.0 |
| 20260506185851 | 17 | 222 | 0.0 | 0.0 | 0.00 | 0.00 | 0.00 | 66 | 1008.0 |
| 20260506185349 | 17 | 222 | 0.0 | 0.0 | 0.00 | 0.00 | 0.00 | 65 | 1007.9 |
| 20260506184848 | 17 | 222 | 0.0 | 0.0 | 0.00 | 0.00 | 0.00 | 63 | 1007.8 |
| 20260506184347 | 18 | 222 | 0.0 | 0.0 | 0.00 | 0.00 | 0.00 | 62 | 1007.8 |
| 20260506183847 | 18 | 222 | 0.0 | 0.0 | 0.00 | 0.00 | 0.00 | 62 | 1007.8 |
| 20260506183609 | 18 | 222 | 0.0 | 0.0 | 0.00 | 0.00 | 0.00 | 61 | 1007.8 |
| 20260506183107 | 18 | 222 | 0.0 | 0.0 | 0.00 | 0.00 | 0.00 | 60 | 1007.7 |
| 20260506182608 | 19 | 222 | 0.0 | 0.0 | 0.00 | 0.00 | 0.00 | 57 | 1007.7 |
| 20260506181839 | 20 | 222 | 0.0 | 0.0 | 0.00 | 0.00 | 0.00 | 56 | 1007.7 |
| 20260506181339 | 20 | 222 | 0.0 | 0.0 | 0.00 | 0.00 | 0.00 | 55 | 1007.7 |
| 20260506180839 | 20 | 222 | 0.0 | 0.0 | 0.00 | 0.00 | 0.00 | 54 | 1007.7 |
| 20260506180337 | 21 | 222 | 0.0 | 0.0 | 0.00 | 0.00 | 0.00 | 53 | 1007.6 |
| 20260506175833 | 21 | 222 | 0.0 | 0.0 | 0.00 | 0.00 | 0.00 | 52 | 1007.5 |
| 20260506175333 | 21 | 222 | 0.0 | 3.2 | 0.00 | 0.00 | 0.00 | 52 | 1007.5 |
| 20260506174832 | 21 | 222 | 0.0 | 4.8 | 0.00 | 0.00 | 0.00 | 51 | 1007.5 |
| 20260506174601 | 22 | 222 | 0.0 | 4.8 | 0.00 | 0.00 | 0.00 | 50 | 1007.5 |
| 20260506173828 | 22 | 222 | 0.0 | 3.2 | 0.00 | 0.00 | 0.00 | 50 | 1007.5 |
| 20260506173322 | 22 | 222 | 0.0 | 4.8 | 0.00 | 0.00 | 0.00 | 50 | 1007.6 |
| 20260506172816 | 22 | 222 | 1.6 | 6.4 | 0.00 | 0.00 | 0.00 | 49 | 1007.6 |
| 20260506172309 | 22 | 222 | 3.2 | 9.7 | 0.00 | 0.00 | 0.00 | 49 | 1007.5 |
| 20260506171809 | 22 | 223 | 4.8 | 9.7 | 0.00 | 0.00 | 0.00 | 48 | 1007.5 |
| 20260506171540 | 23 | 235 | 3.2 | 8.0 | 0.00 | 0.00 | 0.00 | 48 | 1007.4 |
| 20260506170809 | 23 | 235 | 3.2 | 8.0 | 0.00 | 0.00 | 0.00 | 47 | 1007.5 |
| 20260506170309 | 23 | 233 | 1.6 | 6.4 | 0.00 | 0.00 | 0.00 | 48 | 1007.5 |
| 20260506165808 | 22 | 233 | 1.6 | 6.4 | 0.00 | 0.00 | 0.00 | 49 | 1007.4 |
| 20260506165307 | 22 | 232 | 0.0 | 3.2 | 0.00 | 0.00 | 0.00 | 49 | 1007.5 |
| 20260506164807 | 22 | 232 | 0.0 | 4.8 | 0.00 | 0.00 | 0.00 | 49 | 1007.6 |
| 20260506164305 | 22 | 232 | 1.6 | 6.4 | 0.00 | 0.00 | 0.00 | 49 | 1007.6 |
| 20260506163804 | 22 | 232 | 1.6 | 6.4 | 0.00 | 0.00 | 0.00 | 49 | 1007.6 |
| 20260506163532 | 22 | 232 | 3.2 | 11.3 | 0.00 | 0.00 | 0.00 | 49 | 1007.6 |
| 20260506162804 | 22 | 232 | 4.8 | 11.3 | 0.00 | 0.00 | 0.00 | 49 | 1007.7 |
| 20260506162306 | 22 | 244 | 4.8 | 11.3 | 0.00 | 0.00 | 0.00 | 48 | 1007.8 |
| 20260506161802 | 22 | 254 | 4.8 | 9.7 | 0.00 | 0.00 | 0.00 | 48 | 1007.8 |
| 20260506161303 | 22 | 255 | 4.8 | 12.9 | 0.00 | 0.00 | 0.00 | 48 | 1007.8 |
| 20260506160801 | 22 | 240 | 3.2 | 12.9 | 0.00 | 0.00 | 0.00 | 47 | 1007.9 |
| 20260506160300 | 22 | 236 | 3.2 | 9.7 | 0.00 | 0.00 | 0.00 | 48 | 1007.9 |
| 20260506155802 | 22 | 251 | 4.8 | 12.9 | 0.00 | 0.00 | 0.00 | 47 | 1007.9 |
| 20260506155258 | 22 | 219 | 6.4 | 14.5 | 0.00 | 0.00 | 0.00 | 47 | 1008.0 |
| 20260506155024 | 22 | 211 | 6.4 | 12.9 | 0.00 | 0.00 | 0.00 | 46 | 1008.0 |
| 20260506154250 | 22 | 230 | 8.0 | 19.3 | 0.00 | 0.00 | 0.00 | 46 | 1008.1 |
| 20260506153743 | 23 | 234 | 8.0 | 19.3 | 0.00 | 0.00 | 0.00 | 46 | 1008.1 |
| 20260506153237 | 23 | 219 | 6.4 | 16.1 | 0.00 | 0.00 | 0.00 | 46 | 1008.1 |
| 20260506152737 | 23 | 230 | 6.4 | 16.1 | 0.00 | 0.00 | 0.00 | 46 | 1008.1 |
| 20260506152237 | 23 | 252 | 6.4 | 14.5 | 0.00 | 0.00 | 0.00 | 46 | 1008.2 |
| 20260506151737 | 23 | 205 | 6.4 | 14.5 | 0.00 | 0.00 | 0.00 | 45 | 1008.2 |
| 20260506151235 | 23 | 217 | 6.4 | 16.1 | 0.00 | 0.00 | 0.00 | 46 | 1008.3 |
| 20260506151004 | 23 | 252 | 8.0 | 16.1 | 0.00 | 0.00 | 0.00 | 45 | 1008.2 |
| 20260506150501 | 23 | 281 | 8.0 | 14.5 | 0.00 | 0.00 | 0.00 | 44 | 1008.2 |
| 20260506145729 | 23 | 321 | 8.0 | 16.1 | 0.00 | 0.00 | 0.00 | 44 | 1008.2 |
| 20260506145230 | 23 | 252 | 8.0 | 16.1 | 0.00 | 0.00 | 0.00 | 43 | 1008.2 |
| 20260506144729 | 23 | 273 | 6.4 | 16.1 | 0.00 | 0.00 | 0.00 | 43 | 1008.3 |
| 20260506144230 | 23 | 283 | 8.0 | 20.9 | 0.00 | 0.00 | 0.00 | 44 | 1008.4 |
| 20260506143729 | 23 | 198 | 9.7 | 20.9 | 0.00 | 0.00 | 0.00 | 43 | 1008.3 |
| 20260506143229 | 23 | 169 | 9.7 | 22.5 | 0.00 | 0.00 | 0.00 | 43 | 1008.3 |
| 20260506142729 | 24 | 217 | 11.3 | 24.1 | 0.00 | 0.00 | 0.00 | 42 | 1008.3 |
| 20260506142228 | 24 | 196 | 11.3 | 24.1 | 0.00 | 0.00 | 0.00 | 42 | 1008.3 |
| 20260506141729 | 24 | 259 | 9.7 | 22.5 | 0.00 | 0.00 | 0.00 | 43 | 1008.3 |
| 20260506141229 | 23 | 225 | 8.0 | 24.1 | 0.00 | 0.00 | 0.00 | 43 | 1008.4 |
| 20260506140729 | 23 | 276 | 9.7 | 24.1 | 0.00 | 0.00 | 0.00 | 44 | 1008.4 |
| 20260506140455 | 23 | 281 | 9.7 | 24.1 | 0.00 | 0.00 | 0.00 | 43 | 1008.4 |
| 20260506135728 | 23 | 233 | 9.7 | 24.1 | 0.00 | 0.00 | 0.00 | 44 | 1008.4 |
| 20260506135228 | 23 | 224 | 8.0 | 22.5 | 0.00 | 0.00 | 0.00 | 45 | 1008.5 |
| 20260506134728 | 23 | 237 | 8.0 | 19.3 | 0.00 | 0.00 | 0.00 | 44 | 1008.5 |
| 20260506134229 | 23 | 229 | 8.0 | 19.3 | 0.00 | 0.00 | 0.00 | 44 | 1008.5 |
| 20260506133729 | 23 | 288 | 8.0 | 19.3 | 0.00 | 0.00 | 0.00 | 44 | 1008.5 |
| 20260506133229 | 24 | 302 | 8.0 | 19.3 | 0.00 | 0.00 | 0.00 | 43 | 1008.5 |
| 20260506132731 | 23 | 256 | 8.0 | 22.5 | 0.00 | 0.00 | 0.00 | 45 | 1008.6 |
| 20260506132726 | 23 | 162 | 9.7 | 22.5 | 0.00 | 0.00 | 0.00 | 45 | 1008.4 |
| 20260506131729 | 23 | 227 | 11.3 | 24.1 | 0.00 | 0.00 | 0.00 | 45 | 1008.6 |
| 20260506131229 | 23 | 233 | 12.9 | 35.4 | 0.00 | 0.00 | 0.00 | 46 | 1008.6 |
| 20260506130729 | 23 | 191 | 12.9 | 35.4 | 0.00 | 0.00 | 0.00 | 46 | 1008.6 |
| 20260506130457 | 23 | 218 | 9.7 | 22.5 | 0.00 | 0.00 | 0.00 | 47 | 1008.5 |
| 20260506125729 | 23 | 248 | 11.3 | 22.5 | 0.00 | 0.00 | 0.00 | 47 | 1008.6 |
| 20260506125457 | 23 | 245 | 11.3 | 22.5 | 0.00 | 0.00 | 0.00 | 46 | 1008.6 |
| 20260506124729 | 23 | 213 | 11.3 | 22.5 | 0.00 | 0.00 | 0.00 | 47 | 1008.6 |
| 20260506124222 | 23 | 223 | 11.3 | 22.5 | 0.00 | 0.00 | 0.00 | 45 | 1008.6 |
| 20260506123716 | 24 | 259 | 11.3 | 25.7 | 0.00 | 0.00 | 0.00 | 46 | 1008.7 |
| 20260506123202 | 24 | 269 | 9.7 | 25.7 | 0.00 | 0.00 | 0.00 | 46 | 1008.8 |
| 20260506122701 | 23 | 234 | 8.0 | 22.5 | 0.00 | 0.00 | 0.00 | 47 | 1008.6 |
| 20260506122200 | 23 | 90 | 8.0 | 17.7 | 0.00 | 0.00 | 0.00 | 48 | 1008.6 |
| 20260506121701 | 23 | 244 | 9.7 | 24.1 | 0.00 | 0.00 | 0.00 | 48 | 1008.7 |
| 20260506121436 | 23 | 234 | 11.3 | 24.1 | 0.00 | 0.00 | 0.00 | 47 | 1008.7 |
| 20260506120701 | 23 | 273 | 8.0 | 22.5 | 0.00 | 0.00 | 0.00 | 48 | 1008.7 |
| 20260506120200 | 23 | 197 | 9.7 | 20.9 | 0.00 | 0.00 | 0.00 | 51 | 1008.6 |
| 20260506115701 | 23 | 222 | 9.7 | 20.9 | 0.00 | 0.00 | 0.00 | 48 | 1008.6 |
| 20260506115655 | 23 | 252 | 9.7 | 19.3 | 0.00 | 0.00 | 0.00 | 49 | 1008.5 |
| 20260506114701 | 23 | 179 | 11.3 | 24.1 | 0.00 | 0.00 | 0.00 | 48 | 1008.6 |
| 20260506114654 | 23 | 196 | 11.3 | 24.1 | 0.00 | 0.00 | 0.00 | 48 | 1008.5 |
| 20260506113701 | 23 | 225 | 8.0 | 20.9 | 0.00 | 0.00 | 0.00 | 49 | 1008.5 |
| 20260506113211 | 23 | 222 | 9.7 | 30.6 | 0.00 | 0.00 | 0.00 | 49 | 1008.5 |
| 20260506112659 | 23 | 158 | 9.7 | 30.6 | 0.00 | 0.00 | 0.00 | 50 | 1008.5 |
| 20260506112143 | 23 | 275 | 11.3 | 32.2 | 0.00 | 0.00 | 0.00 | 50 | 1008.6 |
| 20260506111905 | 23 | 257 | 11.3 | 32.2 | 0.00 | 0.00 | 0.00 | 50 | 1008.6 |
| 20260506111133 | 23 | 235 | 9.7 | 27.4 | 0.00 | 0.00 | 0.00 | 49 | 1008.7 |
| 20260506110637 | 23 | 248 | 11.3 | 27.4 | 0.00 | 0.00 | 0.00 | 48 | 1008.7 |
| 20260506110136 | 22 | 285 | 11.3 | 25.7 | 0.00 | 0.00 | 0.00 | 49 | 1008.7 |
| 20260506105633 | 23 | 209 | 12.9 | 25.7 | 0.00 | 0.00 | 0.00 | 50 | 1008.8 |
| 20260506105133 | 22 | 241 | 12.9 | 27.4 | 0.00 | 0.00 | 0.00 | 51 | 1008.7 |
| 20260506104634 | 22 | 213 | 11.3 | 30.6 | 0.00 | 0.00 | 0.00 | 53 | 1008.5 |
| 20260506104135 | 22 | 200 | 9.7 | 30.6 | 0.00 | 0.00 | 0.00 | 54 | 1008.7 |
| 20260506104126 | 22 | 192 | 9.7 | 20.9 | 0.00 | 0.00 | 0.00 | 54 | 1008.7 |
| 20260506103133 | 22 | 261 | 9.7 | 20.9 | 0.00 | 0.00 | 0.00 | 55 | 1008.8 |
| 20260506103129 | 22 | 146 | 11.3 | 24.1 | 0.00 | 0.00 | 0.00 | 53 | 1008.7 |
| 20260506102400 | 22 | 265 | 12.9 | 25.7 | 0.00 | 0.00 | 0.00 | 54 | 1008.7 |
| 20260506101631 | 21 | 189 | 12.9 | 25.7 | 0.00 | 0.00 | 0.00 | 54 | 1008.8 |
| 20260506101125 | 21 | 234 | 11.3 | 30.6 | 0.00 | 0.00 | 0.00 | 54 | 1008.9 |
| 20260506100620 | 21 | 198 | 11.3 | 30.6 | 0.00 | 0.00 | 0.00 | 55 | 1008.9 |
| 20260506100113 | 21 | 232 | 11.3 | 24.1 | 0.00 | 0.00 | 0.00 | 55 | 1008.9 |
| 20260506095612 | 21 | 198 | 9.7 | 22.5 | 0.00 | 0.00 | 0.00 | 54 | 1008.8 |
| 20260506095110 | 21 | 286 | 8.0 | 20.9 | 0.00 | 0.00 | 0.00 | 55 | 1008.8 |
| 20260506094608 | 21 | 238 | 8.0 | 17.7 | 0.00 | 0.00 | 0.00 | 55 | 1008.8 |
| 20260506094108 | 21 | 276 | 8.0 | 19.3 | 0.00 | 0.00 | 0.00 | 56 | 1008.8 |
| 20260506093609 | 21 | 203 | 9.7 | 20.9 | 0.00 | 0.00 | 0.00 | 56 | 1008.7 |
| 20260506093109 | 21 | 214 | 11.3 | 29.0 | 0.00 | 0.00 | 0.00 | 56 | 1008.7 |
| 20260506092837 | 21 | 297 | 11.3 | 29.0 | 0.00 | 0.00 | 0.00 | 55 | 1008.7 |
| 20260506092106 | 21 | 279 | 11.3 | 27.4 | 0.00 | 0.00 | 0.00 | 56 | 1008.6 |
| 20260506091836 | 21 | 281 | 9.7 | 27.4 | 0.00 | 0.00 | 0.00 | 55 | 1008.6 |
| 20260506091106 | 21 | 229 | 9.7 | 22.5 | 0.00 | 0.00 | 0.00 | 57 | 1008.6 |
| 20260506090605 | 21 | 213 | 9.7 | 20.9 | 0.00 | 0.00 | 0.00 | 57 | 1008.6 |
| 20260506090105 | 21 | 202 | 9.7 | 22.5 | 0.00 | 0.00 | 0.00 | 57 | 1008.6 |
| 20260506085605 | 21 | 242 | 8.0 | 22.5 | 0.00 | 0.00 | 0.00 | 57 | 1008.5 |
| 20260506085104 | 20 | 290 | 8.0 | 22.5 | 0.00 | 0.00 | 0.00 | 58 | 1008.4 |
| 20260506084603 | 20 | 296 | 9.7 | 22.5 | 0.00 | 0.00 | 0.00 | 58 | 1008.3 |
| 20260506084102 | 20 | 290 | 9.7 | 20.9 | 0.00 | 0.00 | 0.00 | 59 | 1008.3 |
| 20260506083602 | 20 | 237 | 11.3 | 24.1 | 0.00 | 0.00 | 0.00 | 60 | 1008.4 |
| 20260506083102 | 20 | 269 | 11.3 | 24.1 | 0.00 | 0.00 | 0.00 | 59 | 1008.4 |
| 20260506082602 | 20 | 220 | 9.7 | 20.9 | 0.00 | 0.00 | 0.00 | 58 | 1008.4 |
| 20260506082105 | 20 | 305 | 9.7 | 24.1 | 0.00 | 0.00 | 0.00 | 61 | 1008.4 |
| 20260506081604 | 20 | 225 | 9.7 | 24.1 | 0.00 | 0.00 | 0.00 | 60 | 1008.4 |
| 20260506081102 | 20 | 200 | 8.0 | 20.9 | 0.00 | 0.00 | 0.00 | 61 | 1008.4 |
| 20260506080601 | 19 | 250 | 9.7 | 17.7 | 0.00 | 0.00 | 0.00 | 61 | 1008.4 |
| 20260506073100 | 18 | 250 | 9.7 | 19.3 | 0.00 | 0.00 | 0.00 | 65 | 1008.4 |
| 20260506072827 | 18 | 251 | 9.7 | 19.3 | 0.00 | 0.00 | 0.00 | 63 | 1008.3 |
| 20260506072102 | 18 | 280 | 9.7 | 19.3 | 0.00 | 0.00 | 0.00 | 64 | 1008.3 |
| 20260506072058 | 18 | 212 | 8.0 | 19.3 | 0.00 | 0.00 | 0.00 | 64 | 1008.3 |
| 20260506071103 | 18 | 227 | 9.7 | 19.3 | 0.00 | 0.00 | 0.00 | 65 | 1008.4 |
| 20260506070603 | 18 | 205 | 9.7 | 19.3 | 0.00 | 0.00 | 0.00 | 66 | 1008.3 |
| 20260506070327 | 17 | 213 | 8.0 | 20.9 | 0.00 | 0.00 | 0.00 | 66 | 1008.2 |
| 20260506062058 | 16 | 248 | 12.9 | 25.7 | 0.00 | 0.00 | 0.00 | 69 | 1008.2 |
| 20260506061559 | 16 | 213 | 11.3 | 25.7 | 0.00 | 0.00 | 0.00 | 69 | 1008.1 |
| 20260506061059 | 16 | 229 | 6.4 | 19.3 | 0.00 | 0.00 | 0.00 | 69 | 1008.0 |
| 20260506060558 | 16 | 250 | 4.8 | 14.5 | 0.00 | 0.00 | 0.00 | 70 | 1007.9 |
| 20260506051247 | 15 | 228 | 6.4 | 19.3 | 0.00 | 0.00 | 0.00 | 73 | 1007.9 |
| 20260506050506 | 15 | 219 | 6.4 | 19.3 | 0.00 | 0.00 | 0.00 | 73 | 1008.0 |
| 20260506045004 | 15 | 171 | 4.8 | 14.5 | 0.00 | 0.00 | 0.00 | 73 | 1007.8 |
| 20260506044503 | 14 | 242 | 3.2 | 16.1 | 0.00 | 0.00 | 0.00 | 73 | 1007.9 |
| 20260506044005 | 14 | 218 | 4.8 | 16.1 | 0.00 | 0.00 | 0.00 | 73 | 1007.7 |
| 20260506043504 | 15 | 228 | 4.8 | 14.5 | 0.00 | 0.00 | 0.00 | 73 | 1007.8 |
| 20260506043005 | 15 | 221 | 4.8 | 12.9 | 0.00 | 0.00 | 0.00 | 73 | 1007.9 |
| 20260506042502 | 15 | 186 | 4.8 | 11.3 | 0.00 | 0.00 | 0.00 | 73 | 1007.8 |
| 20260506042003 | 14 | 175 | 4.8 | 14.5 | 0.00 | 0.00 | 0.00 | 74 | 1007.8 |
| 20260506041502 | 14 | 153 | 3.2 | 14.5 | 0.00 | 0.00 | 0.00 | 74 | 1007.8 |
| 20260506041001 | 14 | 194 | 3.2 | 9.7 | 0.00 | 0.00 | 0.00 | 74 | 1007.9 |
| 20260506040733 | 14 | 196 | 3.2 | 9.7 | 0.00 | 0.00 | 0.00 | 74 | 1007.9 |
| 20260506040230 | 14 | 234 | 3.2 | 11.3 | 0.00 | 0.00 | 0.00 | 74 | 1007.8 |
| 20260506035505 | 14 | 237 | 4.8 | 11.3 | 0.00 | 0.00 | 0.00 | 73 | 1007.8 |
| 20260506035005 | 14 | 228 | 4.8 | 16.1 | 0.00 | 0.00 | 0.00 | 73 | 1007.9 |
| 20260506034502 | 13 | 221 | 6.4 | 20.9 | 0.00 | 0.00 | 0.00 | 74 | 1007.8 |
| 20260506033959 | 13 | 205 | 6.4 | 20.9 | 0.00 | 0.00 | 0.00 | 75 | 1007.6 |
| 20260506033452 | 13 | 233 | 4.8 | 17.7 | 0.00 | 0.00 | 0.00 | 76 | 1007.6 |
| 20260506032945 | 12 | 166 | 4.8 | 17.7 | 0.00 | 0.00 | 0.00 | 78 | 1007.7 |
| 20260506032436 | 12 | 157 | 3.2 | 12.9 | 0.00 | 0.00 | 0.00 | 81 | 1007.7 |
| 20260506031940 | 10 | 206 | 1.6 | 12.9 | 0.00 | 0.00 | 0.00 | 83 | 1007.8 |
| 20260506031436 | 10 | 236 | 0.0 | 6.4 | 0.00 | 0.00 | 0.00 | 84 | 1007.9 |
| 20260506030934 | 8 | 236 | 0.0 | 6.4 | 0.00 | 0.00 | 0.00 | 84 | 1007.9 |
| 20260506030433 | 8 | 194 | 0.0 | 4.8 | 0.00 | 0.00 | 0.00 | 84 | 1007.9 |
| 20260506025934 | 8 | 194 | 0.0 | 4.8 | 0.00 | 0.00 | 0.00 | 84 | 1007.9 |
| 20260506025432 | 7 | 194 | 0.0 | 0.0 | 0.00 | 0.00 | 0.00 | 84 | 1008.0 |
| 20260506024932 | 7 | 194 | 0.0 | 0.0 | 0.00 | 0.00 | 0.00 | 84 | 1007.9 |
| 20260506024429 | 7 | 194 | 0.0 | 0.0 | 0.00 | 0.00 | 0.00 | 84 | 1007.9 |
| 20260506023929 | 7 | 194 | 0.0 | 0.0 | 0.00 | 0.00 | 0.00 | 84 | 1007.9 |
| 20260506023430 | 7 | 194 | 0.0 | 0.0 | 0.00 | 0.00 | 0.00 | 83 | 1007.9 |
| 20260506022929 | 7 | 194 | 0.0 | 0.0 | 0.00 | 0.00 | 0.00 | 83 | 1007.9 |
| 20260506022428 | 7 | 194 | 0.0 | 0.0 | 0.00 | 0.00 | 0.00 | 83 | 1007.9 |
| 20260506021916 | 8 | 194 | 0.0 | 0.0 | 0.00 | 0.00 | 0.00 | 83 | 1007.9 |
| 20260506021406 | 8 | 194 | 0.0 | 0.0 | 0.00 | 0.00 | 0.00 | 83 | 1007.9 |
| 20260506021139 | 8 | 194 | 0.0 | 0.0 | 0.00 | 0.00 | 0.00 | 83 | 1007.9 |
| 20260506020404 | 8 | 194 | 0.0 | 0.0 | 0.00 | 0.00 | 0.00 | 83 | 1007.9 |
| 20260506020127 | 8 | 194 | 0.0 | 0.0 | 0.00 | 0.00 | 0.00 | 83 | 1008.0 |
| 20260506015401 | 8 | 194 | 0.0 | 0.0 | 0.00 | 0.00 | 0.00 | 83 | 1008.0 |
| 20260506014902 | 8 | 194 | 0.0 | 0.0 | 0.00 | 0.00 | 0.00 | 82 | 1007.9 |
| 20260506014625 | 8 | 194 | 0.0 | 0.0 | 0.00 | 0.00 | 0.00 | 82 | 1007.9 |
| 20260506013902 | 8 | 194 | 0.0 | 0.0 | 0.00 | 0.00 | 0.00 | 82 | 1007.9 |
| 20260506013402 | 8 | 194 | 0.0 | 0.0 | 0.00 | 0.00 | 0.00 | 82 | 1008.0 |
| 20260506012905 | 8 | 194 | 0.0 | 0.0 | 0.00 | 0.00 | 0.00 | 82 | 1007.9 |
| 20260506012358 | 8 | 194 | 0.0 | 0.0 | 0.00 | 0.00 | 0.00 | 82 | 1007.8 |
| 20260506011856 | 8 | 194 | 0.0 | 0.0 | 0.00 | 0.00 | 0.00 | 82 | 1007.8 |
| 20260506011356 | 8 | 194 | 0.0 | 0.0 | 0.00 | 0.00 | 0.00 | 82 | 1007.8 |
| 20260506010856 | 8 | 194 | 0.0 | 0.0 | 0.00 | 0.00 | 0.00 | 81 | 1007.9 |
| 20260506010354 | 8 | 194 | 0.0 | 0.0 | 0.00 | 0.00 | 0.00 | 80 | 1007.8 |
| 20260506005854 | 8 | 194 | 0.0 | 0.0 | 0.00 | 0.00 | 0.00 | 80 | 1007.8 |
| 20260506005342 | 8 | 194 | 0.0 | 0.0 | 0.00 | 0.00 | 0.00 | 79 | 1007.8 |
| 20260506004831 | 8 | 194 | 0.0 | 0.0 | 0.00 | 0.00 | 0.00 | 78 | 1007.8 |
| 20260506004332 | 9 | 194 | 0.0 | 0.0 | 0.00 | 0.00 | 0.00 | 78 | 1007.8 |
| 20260506003831 | 9 | 194 | 0.0 | 0.0 | 0.00 | 0.00 | 0.00 | 78 | 1007.8 |
| 20260506003331 | 10 | 194 | 0.0 | 0.0 | 0.00 | 0.00 | 0.00 | 78 | 1007.9 |
| 20260506003103 | 10 | 194 | 0.0 | 0.0 | 0.00 | 0.00 | 0.00 | 78 | 1007.9 |
| 20260506002333 | 10 | 194 | 0.0 | 0.0 | 0.00 | 0.00 | 0.00 | 78 | 1008.1 |
| 20260506001836 | 10 | 194 | 0.0 | 0.0 | 0.00 | 0.00 | 0.00 | 77 | 1008.0 |
| 20260506001334 | 10 | 194 | 0.0 | 0.0 | 0.00 | 0.00 | 0.00 | 77 | 1008.0 |
| 20260506000835 | 10 | 194 | 0.0 | 0.0 | 0.00 | 0.00 | 0.00 | 77 | 1008.1 |
| 20260506000330 | 10 | 194 | 0.0 | 0.0 | 0.00 | 0.00 | 0.00 | 76 | 1008.1 |
| 20260505235828 | 10 | 194 | 0.0 | 0.0 | 0.00 | 0.00 | 0.00 | 74 | 1008.2 |
| 20260505235327 | 10 | 194 | 0.0 | 0.0 | 0.00 | 0.00 | 0.00 | 74 | 1008.1 |
| 20260505234828 | 11 | 194 | 0.0 | 0.0 | 0.00 | 0.00 | 0.00 | 74 | 1008.1 |
| 20260505234327 | 11 | 194 | 0.0 | 0.0 | 0.00 | 0.00 | 0.00 | 73 | 1008.2 |
| 20260505233830 | 11 | 194 | 0.0 | 0.0 | 0.00 | 0.00 | 0.00 | 72 | 1008.2 |
| 20260505233328 | 11 | 194 | 0.0 | 3.2 | 0.00 | 0.00 | 0.00 | 72 | 1008.2 |
| 20260505232828 | 11 | 194 | 0.0 | 3.2 | 0.00 | 0.00 | 0.00 | 71 | 1008.2 |
| 20260505232824 | 12 | 194 | 0.0 | 0.0 | 0.00 | 0.00 | 0.00 | 70 | 1008.3 |
| 20260505231822 | 12 | 194 | 0.0 | 0.0 | 0.00 | 0.00 | 0.00 | 69 | 1008.2 |
| 20260505231312 | 12 | 194 | 0.0 | 0.0 | 0.00 | 0.00 | 0.00 | 68 | 1008.3 |
| 20260505230810 | 12 | 194 | 0.0 | 0.0 | 0.00 | 0.00 | 0.00 | 67 | 1008.3 |
| 20260505230307 | 13 | 194 | 0.0 | 0.0 | 0.00 | 0.00 | 0.00 | 67 | 1008.3 |
| 20260505225808 | 13 | 194 | 0.0 | 0.0 | 0.00 | 0.00 | 0.00 | 66 | 1008.3 |
| 20260505225529 | 13 | 194 | 0.0 | 0.0 | 0.00 | 0.00 | 0.00 | 65 | 1008.3 |
| 20260505224806 | 14 | 194 | 0.0 | 0.0 | 0.00 | 0.00 | 0.00 | 64 | 1008.3 |
| 20260505224306 | 15 | 194 | 0.0 | 0.0 | 0.00 | 0.00 | 0.00 | 61 | 1008.3 |
| 20260505223804 | 15 | 194 | 0.0 | 0.0 | 0.00 | 0.00 | 0.00 | 60 | 1008.3 |
| 20260505223302 | 16 | 194 | 0.0 | 0.0 | 0.00 | 0.00 | 0.00 | 59 | 1008.4 |
| 20260505222802 | 16 | 194 | 0.0 | 0.0 | 0.00 | 0.00 | 0.00 | 58 | 1008.4 |
| 20260505222302 | 16 | 194 | 0.0 | 1.6 | 0.00 | 0.00 | 0.00 | 58 | 1008.4 |
| 20260505221801 | 16 | 194 | 0.0 | 4.8 | 0.00 | 0.00 | 0.00 | 58 | 1008.4 |
| 20260505221301 | 16 | 194 | 0.0 | 4.8 | 0.00 | 0.00 | 0.00 | 58 | 1008.4 |
| 20260505220801 | 16 | 194 | 0.0 | 3.2 | 0.00 | 0.00 | 0.00 | 58 | 1008.5 |
| 20260505220301 | 16 | 194 | 0.0 | 6.4 | 0.00 | 0.00 | 0.00 | 58 | 1008.5 |
| 20260505215753 | 16 | 194 | 0.0 | 6.4 | 0.00 | 0.00 | 0.00 | 59 | 1008.5 |
| 20260505215247 | 16 | 194 | 0.0 | 1.6 | 0.00 | 0.00 | 0.00 | 59 | 1008.6 |
| 20260505215014 | 15 | 194 | 0.0 | 1.6 | 0.00 | 0.00 | 0.00 | 60 | 1008.6 |
| 20260505214515 | 15 | 194 | 0.0 | 1.6 | 0.00 | 0.00 | 0.00 | 61 | 1008.7 |
| 20260505213741 | 15 | 194 | 0.0 | 1.6 | 0.00 | 0.00 | 0.00 | 61 | 1008.6 |
| 20260505213239 | 14 | 194 | 0.0 | 1.6 | 0.00 | 0.00 | 0.00 | 62 | 1008.6 |
| 20260505212739 | 14 | 194 | 0.0 | 3.2 | 0.00 | 0.00 | 0.00 | 62 | 1008.6 |
| 20260505212240 | 14 | 194 | 0.0 | 3.2 | 0.00 | 0.00 | 0.00 | 63 | 1008.6 |
| 20260505211736 | 13 | 194 | 0.0 | 3.2 | 0.00 | 0.00 | 0.00 | 65 | 1008.7 |
| 20260505211233 | 13 | 194 | 0.0 | 3.2 | 0.00 | 0.00 | 0.00 | 65 | 1008.6 |
| 20260505210733 | 13 | 194 | 0.0 | 0.0 | 0.00 | 0.00 | 0.00 | 64 | 1008.7 |
| 20260505210233 | 13 | 194 | 0.0 | 0.0 | 0.00 | 0.00 | 0.00 | 63 | 1008.6 |
| 20260505205734 | 13 | 194 | 0.0 | 0.0 | 0.00 | 0.00 | 0.00 | 62 | 1008.6 |
| 20260505205231 | 13 | 194 | 0.0 | 0.0 | 0.00 | 0.00 | 0.00 | 62 | 1008.6 |
| 20260505205001 | 13 | 194 | 0.0 | 0.0 | 0.00 | 0.00 | 0.00 | 62 | 1008.6 |
| 20260505204236 | 13 | 194 | 0.0 | 1.6 | 0.00 | 0.00 | 0.00 | 61 | 1008.6 |
| 20260505203733 | 13 | 194 | 0.0 | 1.6 | 0.00 | 0.00 | 0.00 | 60 | 1008.5 |
| 20260505203718 | 13 | 194 | 0.0 | 3.2 | 0.00 | 0.00 | 0.00 | 59 | 1008.5 |
| 20260505202726 | 14 | 194 | 0.0 | 3.2 | 0.00 | 0.00 | 0.00 | 58 | 1008.5 |
| 20260505202220 | 14 | 194 | 0.0 | 1.6 | 0.00 | 0.00 | 0.00 | 57 | 1008.6 |
| 20260505202212 | 14 | 194 | 0.0 | 1.6 | 0.00 | 0.00 | 0.00 | 56 | 1008.5 |
| 20260505201218 | 15 | 194 | 0.0 | 3.2 | 0.00 | 0.00 | 0.00 | 56 | 1008.6 |
| 20260505200713 | 15 | 194 | 0.0 | 3.2 | 0.00 | 0.00 | 0.00 | 55 | 1008.6 |
| 20260505200211 | 15 | 194 | 0.0 | 0.0 | 0.00 | 0.00 | 0.00 | 53 | 1008.4 |
| 20260505195708 | 15 | 194 | 0.0 | 0.0 | 0.00 | 0.00 | 0.00 | 52 | 1008.5 |
| 20260505195208 | 16 | 194 | 0.0 | 0.0 | 0.00 | 0.00 | 0.00 | 50 | 1008.4 |
| 20260505194708 | 16 | 194 | 0.0 | 0.0 | 0.00 | 0.00 | 0.00 | 48 | 1008.4 |
| 20260505194208 | 17 | 194 | 0.0 | 0.0 | 0.00 | 0.00 | 0.00 | 47 | 1008.4 |
| 20260505193705 | 17 | 194 | 0.0 | 0.0 | 0.00 | 0.00 | 0.00 | 46 | 1008.4 |
| 20260505193206 | 18 | 194 | 0.0 | 0.0 | 0.00 | 0.00 | 0.00 | 45 | 1008.4 |
| 20260505192706 | 18 | 194 | 0.0 | 3.2 | 0.00 | 0.00 | 0.00 | 43 | 1008.3 |
| 20260505192205 | 18 | 194 | 0.0 | 3.2 | 0.00 | 0.00 | 0.00 | 43 | 1008.3 |
| 20260505191704 | 18 | 194 | 0.0 | 0.0 | 0.00 | 0.00 | 0.00 | 42 | 1008.4 |
| 20260505191202 | 18 | 194 | 0.0 | 1.6 | 0.00 | 0.00 | 0.00 | 42 | 1008.4 |
| 20260505190702 | 19 | 194 | 0.0 | 4.8 | 0.00 | 0.00 | 0.00 | 42 | 1008.4 |